Time;durP1;ratioP1;P1;durP2;ratioP2;P2;SDS_P1;SDS_P2;PMS_P1;PMS_P2;Temp;Humidity;BMP_temperature;BMP_pressure;BME280_temperature;BME280_humidity;BME280_pressure;Samples;Min_cycle;Max_cycle;Signal;HPM_P1;HPM_P2
2023/06/22 00:00:13;;;;;;;4.85;3.22;;;;;;;20.09;66.60;101735.00;5047490;28;20041;-75
2023/06/22 00:02:40;;;;;;;4.78;3.70;;;;;;;20.16;66.49;101739.03;5048611;28;20038;-74
2023/06/22 00:05:07;;;;;;;5.90;4.00;;;;;;;20.14;66.42;101740.97;5048593;28;20065;-74
2023/06/22 00:07:34;;;;;;;6.32;4.57;;;;;;;20.08;66.18;101735.94;5048136;28;20037;-73
2023/06/22 00:10:02;;;;;;;6.55;3.97;;;;;;;19.98;66.65;101735.63;5047822;28;20053;-74
2023/06/22 00:12:29;;;;;;;6.68;4.05;;;;;;;19.99;67.23;101732.84;5048627;28;20052;-73
2023/06/22 00:14:56;;;;;;;5.85;3.53;;;;;;;20.05;67.13;101728.97;5045093;28;20517;-74
2023/06/22 00:17:23;;;;;;;6.75;3.92;;;;;;;20.09;67.15;101724.28;5038832;28;20160;-74
2023/06/22 00:19:53;;;;;;;6.68;5.22;;;;;;;20.03;67.72;101738.88;5046435;28;20056;-74
2023/06/22 00:22:28;;;;;;;7.03;4.95;;;;;;;19.86;68.04;101737.13;5048177;28;20050;-74
2023/06/22 00:24:56;;;;;;;6.00;4.68;;;;;;;19.74;68.52;101740.47;5045613;28;20858;-74
2023/06/22 00:27:23;;;;;;;6.07;4.70;;;;;;;19.68;69.20;101730.97;5047213;28;21408;-74
2023/06/22 00:29:51;;;;;;;6.63;5.13;;;;;;;19.61;69.17;101733.13;5046209;28;20849;-74
2023/06/22 00:32:18;;;;;;;6.80;5.15;;;;;;;19.50;69.68;101735.50;5042845;28;20042;-73
2023/06/22 00:34:47;;;;;;;7.30;4.57;;;;;;;19.39;70.04;101733.41;5040765;28;20157;-73
2023/06/22 00:37:14;;;;;;;7.20;4.38;;;;;;;19.43;70.28;101732.31;5060328;28;20679;-74
2023/06/22 00:39:43;;;;;;;5.97;4.00;;;;;;;19.50;70.04;101728.34;5043060;28;20049;-74
2023/06/22 00:42:11;;;;;;;5.80;3.80;;;;;;;19.62;69.87;101728.63;5036864;28;20077;-74
2023/06/22 00:44:38;;;;;;;7.20;4.78;;;;;;;19.76;69.72;101733.22;5047956;28;20054;-75
2023/06/22 00:47:06;;;;;;;5.90;4.65;;;;;;;19.73;69.52;101731.56;5047772;28;20056;-73
2023/06/22 00:49:33;;;;;;;6.03;4.53;;;;;;;19.67;69.67;101734.59;5045846;28;20112;-73
2023/06/22 00:52:01;;;;;;;7.60;5.25;;;;;;;19.54;70.11;101737.06;5046351;28;20037;-73
2023/06/22 00:54:29;;;;;;;7.03;4.70;;;;;;;19.40;70.54;101730.66;5041302;28;20037;-75
2023/06/22 00:56:57;;;;;;;7.00;5.07;;;;;;;19.34;70.90;101730.97;5040663;28;20532;-74
2023/06/22 00:59:26;;;;;;;7.75;4.97;;;;;;;19.30;71.15;101728.53;5046826;28;20065;-73
2023/06/22 01:01:54;;;;;;;7.18;4.95;;;;;;;19.24;71.50;101732.41;5049653;28;20046;-74
2023/06/22 01:04:35;;;;;;;6.30;4.43;;;;;;;19.16;71.76;101727.50;5046285;28;20042;-74
2023/06/22 01:07:31;;;;;;;6.85;3.97;;;;;;;19.12;72.24;101725.06;5047179;28;20050;-75
2023/06/22 01:10:27;;;;;;;5.53;4.68;;;;;;;19.11;72.30;101718.84;5053659;28;20119;-74
2023/06/22 01:13:02;;;;;;;7.20;4.97;;;;;;;19.11;72.25;101713.50;5046941;28;20046;-74
2023/06/22 01:15:42;;;;;;;8.02;5.00;;;;;;;19.05;72.65;101708.47;5049809;28;20049;-75
2023/06/22 01:18:14;;;;;;;6.85;5.20;;;;;;;19.04;72.75;101712.09;5050915;28;20044;-73
2023/06/22 01:20:44;;;;;;;5.97;5.07;;;;;;;18.99;72.91;101719.47;5047381;28;20046;-73
2023/06/22 01:23:36;;;;;;;6.18;5.22;;;;;;;18.92;73.25;101708.22;5050811;28;20041;-72
2023/06/22 01:26:41;;;;;;;8.25;4.97;;;;;;;18.86;73.35;101709.41;5059864;28;20087;-73
2023/06/22 01:29:14;;;;;;;7.65;5.63;;;;;;;18.86;73.36;101708.53;5047008;28;20518;-73
2023/06/22 01:31:45;;;;;;;8.48;5.20;;;;;;;18.91;73.26;101712.69;5038634;28;20056;-73
2023/06/22 01:34:14;;;;;;;7.57;4.90;;;;;;;18.93;73.11;101718.84;5045247;28;20038;-73
2023/06/22 01:36:43;;;;;;;5.80;4.25;;;;;;;18.93;72.95;101721.53;5034155;28;20042;-75
2023/06/22 01:39:13;;;;;;;5.85;4.40;;;;;;;18.93;73.23;101716.19;5049958;28;20041;-74
2023/06/22 01:41:43;;;;;;;5.80;4.47;;;;;;;18.93;73.27;101715.31;5049055;28;22313;-75
2023/06/22 01:44:12;;;;;;;6.18;4.80;;;;;;;18.95;73.28;101708.09;5049783;28;20045;-74
2023/06/22 01:46:40;;;;;;;6.85;4.97;;;;;;;18.95;73.51;101702.75;5051103;28;20045;-74
2023/06/22 01:49:08;;;;;;;8.15;5.45;;;;;;;18.92;73.69;101708.22;5045954;28;20041;-74
2023/06/22 01:51:36;;;;;;;6.38;4.65;;;;;;;18.91;73.77;101699.34;5044438;28;20056;-75
2023/06/22 01:54:03;;;;;;;6.85;5.43;;;;;;;18.93;73.67;101692.16;5048697;28;20058;-74
2023/06/22 01:56:30;;;;;;;8.02;5.60;;;;;;;18.90;73.54;101689.59;5044204;28;20048;-74
2023/06/22 01:59:27;;;;;;;10.77;5.40;;;;;;;18.86;73.83;101693.38;5046322;28;20037;-74
2023/06/22 02:02:07;;;;;;;9.38;5.40;;;;;;;18.87;73.95;101699.56;5043749;28;20852;-75
2023/06/22 02:05:06;;;;;;;7.03;5.43;;;;;;;18.87;74.31;101691.56;5046328;28;20052;-75
2023/06/22 02:07:46;;;;;;;9.65;5.63;;;;;;;18.85;74.41;101688.09;5045937;28;20053;-73
2023/06/22 02:10:20;;;;;;;7.38;5.72;;;;;;;18.91;74.42;101698.47;5047369;28;20041;-73
2023/06/22 02:12:51;;;;;;;7.80;5.25;;;;;;;18.91;74.48;101698.47;5047090;28;20073;-73
2023/06/22 02:15:20;;;;;;;6.53;4.75;;;;;;;18.95;74.43;101701.88;5047942;28;20088;-73
2023/06/22 02:17:48;;;;;;;7.38;5.38;;;;;;;18.98;74.21;101699.91;5046581;28;20053;-73
2023/06/22 02:20:15;;;;;;;5.90;4.82;;;;;;;19.02;74.52;101698.81;5042939;28;20037;-74
2023/06/22 02:22:42;;;;;;;6.38;5.25;;;;;;;19.06;73.98;101695.03;5047461;28;20145;-74
2023/06/22 02:25:10;;;;;;;8.73;6.03;;;;;;;19.05;73.77;101697.78;5046905;28;20037;-74
2023/06/22 02:27:40;;;;;;;9.93;5.63;;;;;;;18.96;73.93;101700.94;5047622;28;20041;-74
2023/06/22 02:30:09;;;;;;;8.48;5.80;;;;;;;18.89;74.28;101693.19;5047889;28;20052;-73
2023/06/22 02:32:41;;;;;;;8.73;6.10;;;;;;;18.80;74.77;101683.00;5048602;28;21470;-74
2023/06/22 02:35:09;;;;;;;7.20;5.47;;;;;;;18.72;75.06;101688.72;5044482;28;20042;-74
2023/06/22 02:37:41;;;;;;;8.98;6.05;;;;;;;18.69;75.38;101680.91;5043126;28;20045;-74
2023/06/22 02:40:10;;;;;;;7.25;6.10;;;;;;;18.62;75.52;101680.34;5046573;28;20064;-74
2023/06/22 02:42:39;;;;;;;9.70;6.22;;;;;;;18.59;75.80;101677.81;5045741;28;20528;-74
2023/06/22 02:45:07;;;;;;;7.82;6.35;;;;;;;18.62;75.94;101674.13;5047509;28;20072;-74
2023/06/22 02:47:34;;;;;;;7.03;5.60;;;;;;;18.64;75.93;101672.25;5042348;28;20050;-74
2023/06/22 02:50:02;;;;;;;8.07;6.32;;;;;;;18.69;76.03;101664.88;5042979;28;20853;-73
2023/06/22 02:52:33;;;;;;;8.38;5.65;;;;;;;18.69;75.79;101667.53;5046666;28;20128;-74
2023/06/22 02:55:01;;;;;;;9.93;6.63;;;;;;;18.64;75.74;101661.56;5045545;28;20498;-73
2023/06/22 02:57:29;;;;;;;11.40;6.55;;;;;;;18.59;76.21;101660.94;5044430;28;20045;-73
2023/06/22 02:59:57;;;;;;;9.20;6.40;;;;;;;18.53;75.85;101662.13;5043854;28;20049;-73
2023/06/22 03:02:24;;;;;;;9.60;6.53;;;;;;;18.53;76.21;101667.47;5044041;28;20481;-73
2023/06/22 03:04:53;;;;;;;8.40;6.32;;;;;;;18.60;76.29;101665.34;5046129;28;20140;-74
2023/06/22 03:07:20;;;;;;;8.55;5.82;;;;;;;18.66;75.63;101673.03;5047406;28;20045;-73
2023/06/22 03:09:49;;;;;;;9.73;5.43;;;;;;;18.74;75.53;101668.16;5037975;28;20120;-72
2023/06/22 03:12:16;;;;;;;8.65;6.00;;;;;;;18.81;75.36;101674.03;5042897;28;20048;-73
2023/06/22 03:14:52;;;;;;;9.43;6.18;;;;;;;18.81;74.80;101663.34;5044022;28;20052;-72
2023/06/22 03:17:20;;;;;;;7.95;6.63;;;;;;;18.73;74.70;101660.22;5044337;28;20462;-72
2023/06/22 03:19:47;;;;;;;9.85;6.70;;;;;;;18.65;75.54;101657.94;5044390;28;20476;-71
2023/06/22 03:22:14;;;;;;;9.70;6.35;;;;;;;18.59;75.59;101663.63;5044718;28;20461;-72
2023/06/22 03:24:42;;;;;;;9.68;6.95;;;;;;;18.56;76.05;101650.41;5043404;28;20147;-72
2023/06/22 03:27:09;;;;;;;8.52;6.75;;;;;;;18.49;76.31;101647.19;5042481;28;20033;-72
2023/06/22 03:29:36;;;;;;;9.73;6.60;;;;;;;18.41;76.74;101644.94;5043258;28;20065;-72
2023/06/22 03:32:05;;;;;;;7.45;6.38;;;;;;;18.39;76.85;101643.25;5046111;28;20128;-72
2023/06/22 03:34:34;;;;;;;9.15;6.80;;;;;;;18.35;76.83;101641.72;5045732;28;20564;-72
2023/06/22 03:37:01;;;;;;;10.38;7.20;;;;;;;18.33;77.45;101640.91;5044177;28;20363;-72
2023/06/22 03:39:29;;;;;;;10.57;7.30;;;;;;;18.33;77.69;101646.25;5044101;28;20049;-72
2023/06/22 03:41:57;;;;;;;10.50;6.50;;;;;;;18.33;77.89;101646.25;5055863;28;20048;-73
2023/06/22 03:44:24;;;;;;;8.90;7.45;;;;;;;18.39;77.96;101644.13;5039851;28;20107;-73
2023/06/22 03:46:51;;;;;;;9.27;7.53;;;;;;;18.44;77.69;101639.41;5034863;28;21343;-72
2023/06/22 03:49:19;;;;;;;10.20;8.25;;;;;;;18.41;77.94;101641.38;5043886;28;20045;-70
2023/06/22 03:51:46;;;;;;;9.48;8.07;;;;;;;18.34;78.12;101638.16;5043024;28;20049;-72
2023/06/22 03:54:13;;;;;;;10.60;8.05;;;;;;;18.28;78.19;101642.00;5014601;28;20502;-72
2023/06/22 03:56:40;;;;;;;12.80;8.65;;;;;;;18.27;78.28;101637.59;5044284;28;20038;-73
2023/06/22 03:59:07;;;;;;;10.63;8.48;;;;;;;18.25;78.31;101643.97;5033246;28;20049;-72
2023/06/22 04:01:34;;;;;;;13.75;9.48;;;;;;;18.25;78.70;101635.94;5036475;28;20056;-72
2023/06/22 04:04:01;;;;;;;11.25;8.98;;;;;;;18.21;78.23;101631.72;5039825;28;20117;-72
2023/06/22 04:06:28;;;;;;;8.93;8.00;;;;;;;18.24;78.70;101631.56;5044545;28;20041;-72
2023/06/22 04:08:56;;;;;;;10.75;8.73;;;;;;;18.26;79.11;101629.69;5044045;28;20041;-72
2023/06/22 04:11:23;;;;;;;11.95;8.85;;;;;;;18.28;79.45;101625.13;5046166;28;20065;-73
2023/06/22 04:13:51;;;;;;;11.55;9.93;;;;;;;18.28;78.80;101628.66;5045624;28;20045;-74
2023/06/22 04:16:18;;;;;;;11.40;9.43;;;;;;;18.29;78.63;101633.06;5046807;28;20042;-74
2023/06/22 04:18:45;;;;;;;14.07;9.52;;;;;;;18.33;78.92;101631.09;5043222;28;20033;-74
2023/06/22 04:21:13;;;;;;;10.95;9.50;;;;;;;18.39;78.94;101628.13;5046274;28;20073;-74
2023/06/22 04:23:40;;;;;;;11.32;9.50;;;;;;;18.42;78.35;101635.09;5039193;28;20048;-72
2023/06/22 04:26:07;;;;;;;12.60;10.05;;;;;;;18.49;79.02;101628.50;5049387;28;20072;-73
2023/06/22 04:28:35;;;;;;;12.43;9.93;;;;;;;18.54;78.47;101631.81;5048757;28;20041;-72
2023/06/22 04:31:02;;;;;;;11.73;9.77;;;;;;;18.60;78.55;101636.81;5046223;28;20045;-72
2023/06/22 04:33:30;;;;;;;12.98;10.27;;;;;;;18.65;78.31;101633.91;5042587;28;20045;-72
2023/06/22 04:36:01;;;;;;;13.43;10.27;;;;;;;18.66;78.61;101626.78;5046888;28;20056;-72
2023/06/22 04:38:28;;;;;;;14.05;10.30;;;;;;;18.73;78.29;101626.38;5043028;28;20104;-73
2023/06/22 04:40:55;;;;;;;12.65;10.32;;;;;;;18.77;78.58;101622.59;5043110;28;20573;-73
2023/06/22 04:43:22;;;;;;;14.50;11.13;;;;;;;18.79;78.36;101625.19;5040958;28;20607;-73
2023/06/22 04:45:52;;;;;;;13.60;10.25;;;;;;;18.79;78.49;101625.19;5038777;28;20045;-72
2023/06/22 04:48:19;;;;;;;13.13;10.63;;;;;;;18.84;78.62;101614.25;5043209;28;20192;-73
2023/06/22 04:50:46;;;;;;;12.63;10.70;;;;;;;18.94;78.46;101620.88;5042563;28;20834;-73
2023/06/22 04:53:13;;;;;;;12.70;10.27;;;;;;;19.06;77.95;101620.22;5044197;28;20056;-74
2023/06/22 04:55:41;;;;;;;16.63;10.90;;;;;;;19.18;77.77;101617.81;5043080;28;20644;-74
2023/06/22 04:58:08;;;;;;;13.75;10.77;;;;;;;19.24;77.66;101629.03;5038442;28;20121;-74
2023/06/22 05:00:38;;;;;;;14.18;11.10;;;;;;;19.33;77.55;101626.81;5043780;28;20589;-73
2023/06/22 05:03:06;;;;;;;15.75;11.43;;;;;;;19.53;76.67;101623.91;5038159;28;20536;-74
2023/06/22 05:05:46;;;;;;;14.60;11.02;;;;;;;19.65;76.31;101621.50;5039236;28;20041;-74
2023/06/22 05:08:13;;;;;;;14.43;11.35;;;;;;;19.71;75.93;101624.69;5038804;28;20041;-74
2023/06/22 05:10:40;;;;;;;15.38;12.18;;;;;;;19.77;76.19;101627.94;5039555;28;20045;-72
2023/06/22 05:13:27;;;;;;;13.77;11.85;;;;;;;19.88;75.62;101635.41;5042768;28;20690;-74
2023/06/22 05:16:00;;;;;;;18.13;10.57;;;;;;;20.07;75.21;101627.16;5036130;28;20054;-72
2023/06/22 05:18:29;;;;;;;13.90;11.23;;;;;;;20.29;74.49;101616.09;5037856;28;20068;-73
2023/06/22 05:20:59;;;;;;;13.43;10.98;;;;;;;20.54;73.40;101628.88;5042971;28;20229;-73
2023/06/22 05:23:26;;;;;;;15.45;11.38;;;;;;;21.01;71.48;101618.03;5044210;28;20045;-73
2023/06/22 05:25:54;;;;;;;14.55;11.45;;;;;;;21.15;71.10;101623.41;5041350;28;20045;-73
2023/06/22 05:28:22;;;;;;;14.52;10.98;;;;;;;21.68;69.93;101629.00;5043937;28;20041;-73
2023/06/22 05:30:50;;;;;;;15.93;12.02;;;;;;;22.26;67.35;101620.72;5033048;28;20136;-73
2023/06/22 05:33:17;;;;;;;13.60;11.82;;;;;;;22.35;66.99;101629.97;5041025;28;20121;-73
2023/06/22 05:35:45;;;;;;;17.05;11.60;;;;;;;22.65;65.30;101629.72;5034178;28;20042;-73
2023/06/22 05:38:12;;;;;;;12.60;10.55;;;;;;;22.75;64.44;101631.75;5035778;28;20103;-73
2023/06/22 05:40:39;;;;;;;15.75;11.80;;;;;;;22.85;64.43;101635.53;5035568;28;20045;-73
2023/06/22 05:43:06;;;;;;;14.00;11.77;;;;;;;23.14;63.56;101634.44;5045342;28;20148;-73
2023/06/22 05:45:33;;;;;;;16.83;11.48;;;;;;;23.68;62.04;101639.53;5028158;28;20038;-73
2023/06/22 05:48:01;;;;;;;13.85;10.90;;;;;;;23.64;62.20;101643.41;5033050;28;20442;-73
2023/06/22 05:50:28;;;;;;;12.85;10.70;;;;;;;23.50;62.47;101632.81;5029501;28;20709;-73
2023/06/22 05:52:56;;;;;;;12.77;10.50;;;;;;;23.16;62.59;101649.50;5040939;28;20082;-75
2023/06/22 05:55:23;;;;;;;14.60;11.02;;;;;;;22.75;63.58;101640.72;5026828;28;20049;-74
2023/06/22 05:57:50;;;;;;;16.30;11.75;;;;;;;22.30;64.91;101635.66;5035570;28;20043;-74
2023/06/22 06:00:17;;;;;;;14.77;11.98;;;;;;;22.03;66.29;101631.16;5038099;28;20049;-73
2023/06/22 06:02:44;;;;;;;16.13;11.50;;;;;;;21.90;66.89;101627.59;5027133;28;20049;-72
2023/06/22 06:05:14;;;;;;;14.98;12.18;;;;;;;21.87;67.42;101641.22;5032642;28;20120;-74
2023/06/22 06:07:42;;;;;;;13.90;11.15;;;;;;;21.78;67.63;101629.25;5044700;28;20116;-73
2023/06/22 06:10:10;;;;;;;13.70;11.07;;;;;;;21.70;68.29;101640.50;5046701;28;20506;-73
2023/06/22 06:12:37;;;;;;;14.77;11.82;;;;;;;21.68;68.58;101631.69;5045956;28;20464;-74
2023/06/22 06:15:05;;;;;;;16.08;12.15;;;;;;;21.62;68.90;101633.91;5044822;28;20135;-73
2023/06/22 06:17:34;;;;;;;15.07;12.20;;;;;;;21.60;68.93;101636.69;5047044;28;20501;-72
2023/06/22 06:20:01;;;;;;;16.23;12.75;;;;;;;21.56;69.25;101630.63;5047193;28;20673;-72
2023/06/22 06:22:28;;;;;;;15.52;11.88;;;;;;;21.54;69.64;101634.34;5044493;28;20054;-72
2023/06/22 06:24:55;;;;;;;16.58;13.05;;;;;;;21.53;70.10;101638.00;5046492;28;20138;-73
2023/06/22 06:27:29;;;;;;;15.90;12.40;;;;;;;21.52;69.85;101621.03;5046341;28;20045;-72
2023/06/22 06:29:57;;;;;;;16.38;12.80;;;;;;;21.43;70.28;101618.97;5045515;28;20559;-72
2023/06/22 06:32:24;;;;;;;17.05;12.35;;;;;;;21.40;70.20;101617.34;5046186;28;20546;-72
2023/06/22 06:34:51;;;;;;;14.52;12.00;;;;;;;21.45;70.24;101621.53;5041717;28;20873;-72
2023/06/22 06:37:18;;;;;;;14.43;11.63;;;;;;;21.44;70.29;101625.16;5045251;28;20045;-73
2023/06/22 06:39:45;;;;;;;15.05;13.02;;;;;;;21.44;71.01;101622.50;5043890;28;20107;-72
2023/06/22 06:42:13;;;;;;;14.90;12.88;;;;;;;21.45;71.07;101627.78;5044731;28;20099;-72
2023/06/22 06:44:40;;;;;;;14.68;13.00;;;;;;;21.51;71.30;101621.16;5060138;28;20053;-72
2023/06/22 06:47:07;;;;;;;16.98;12.52;;;;;;;21.63;71.01;101624.88;5046907;28;20107;-71
2023/06/22 06:49:34;;;;;;;16.42;12.45;;;;;;;21.70;70.60;101615.47;5044980;28;20445;-72
2023/06/22 06:52:01;;;;;;;15.15;12.35;;;;;;;21.74;70.75;101614.31;5040905;28;20486;-74
2023/06/22 06:54:28;;;;;;;16.40;12.18;;;;;;;21.80;70.26;101615.75;5046275;28;20052;-73
2023/06/22 06:56:55;;;;;;;16.40;12.27;;;;;;;21.90;69.81;101615.97;5044745;28;20096;-73
2023/06/22 06:59:22;;;;;;;16.80;11.88;;;;;;;21.93;69.70;101619.31;5044181;28;20129;-73
2023/06/22 07:01:49;;;;;;;14.82;12.27;;;;;;;21.95;69.52;101612.03;5043001;28;20167;-73
2023/06/22 07:04:17;;;;;;;16.23;12.75;;;;;;;22.00;69.38;101619.78;5046971;28;20421;-72
2023/06/22 07:06:44;;;;;;;14.80;12.80;;;;;;;22.04;69.40;101613.25;5044788;28;20588;-72
2023/06/22 07:09:11;;;;;;;17.35;13.68;;;;;;;;;;5046768;28;21041;-73
2023/06/22 07:11:38;;;;;;;16.55;12.23;;;;;;;22.22;69.02;101602.22;5045953;28;20192;-73
2023/06/22 07:14:05;;;;;;;15.18;12.48;;;;;;;22.26;68.85;101601.91;5045809;28;20068;-73
2023/06/22 07:16:32;;;;;;;15.00;12.40;;;;;;;22.27;68.66;101595.59;5044928;28;20041;-73
2023/06/22 07:19:00;;;;;;;15.38;12.82;;;;;;;22.29;68.98;101600.84;5046541;28;20116;-73
2023/06/22 07:21:27;;;;;;;14.48;12.95;;;;;;;22.29;68.73;101600.84;5046162;28;20063;-73
2023/06/22 07:23:54;;;;;;;15.27;12.52;;;;;;;22.28;69.09;101597.31;5045793;28;20050;-73
2023/06/22 07:26:21;;;;;;;16.05;12.70;;;;;;;22.25;69.49;101596.66;5046609;28;20421;-73
2023/06/22 07:28:50;;;;;;;15.95;12.32;;;;;;;22.27;69.06;101592.91;5046573;28;20129;-72
2023/06/22 07:31:17;;;;;;;19.40;13.20;;;;;;;22.25;69.21;101588.59;5046477;28;20343;-72
2023/06/22 07:33:44;;;;;;;15.45;13.30;;;;;;;22.19;69.47;101579.97;5047556;28;20047;-72
2023/06/22 07:36:12;;;;;;;13.90;12.32;;;;;;;22.19;69.81;101579.97;5046845;28;20502;-72
2023/06/22 07:38:39;;;;;;;16.52;12.70;;;;;;;22.24;69.74;101585.03;5048146;28;20046;-72
2023/06/22 07:41:06;;;;;;;16.48;12.35;;;;;;;22.33;69.38;101594.31;5048409;28;20046;-72
2023/06/22 07:43:36;;;;;;;14.63;12.35;;;;;;;22.34;69.18;101591.50;5047358;28;20057;-73
2023/06/22 07:46:04;;;;;;;15.43;12.05;;;;;;;22.39;69.10;101584.97;5046177;28;20332;-73
2023/06/22 07:48:31;;;;;;;13.98;10.82;;;;;;;22.57;68.73;101588.25;5047472;28;20700;-73
2023/06/22 07:50:58;;;;;;;12.30;11.00;;;;;;;22.73;68.81;101586.19;5045794;28;20057;-73
2023/06/22 07:53:25;;;;;;;14.75;11.30;;;;;;;22.91;67.33;101584.03;5045760;28;20041;-73
2023/06/22 07:55:52;;;;;;;13.13;10.75;;;;;;;23.04;66.56;101586.72;5046864;28;20510;-73
2023/06/22 07:58:20;;;;;;;12.68;10.32;;;;;;;23.16;65.71;101590.34;5049435;28;20045;-72
2023/06/22 08:00:49;;;;;;;13.45;10.38;;;;;;;23.31;65.00;101577.63;5048091;28;20052;-73
2023/06/22 08:03:16;;;;;;;14.52;11.40;;;;;;;23.52;64.15;101567.16;5049392;28;20528;-72
2023/06/22 08:05:43;;;;;;;14.15;11.88;;;;;;;23.72;62.85;101568.34;5048795;28;20497;-73
2023/06/22 08:08:11;;;;;;;13.60;11.32;;;;;;;23.89;62.85;101556.31;5049298;28;20040;-73
2023/06/22 08:10:38;;;;;;;14.88;11.20;;;;;;;24.16;61.99;101546.25;5048061;28;20037;-74
2023/06/22 08:13:05;;;;;;;15.50;11.55;;;;;;;24.34;59.57;101539.44;5049569;28;20128;-74
2023/06/22 08:15:32;;;;;;;15.15;11.27;;;;;;;24.41;59.56;101529.06;5047670;28;20277;-74
2023/06/22 08:18:00;;;;;;;15.82;12.23;;;;;;;24.47;59.04;101536.63;5048642;28;20046;-73
2023/06/22 08:20:27;;;;;;;16.27;12.30;;;;;;;24.47;59.26;101538.50;5048733;28;20092;-73
2023/06/22 08:22:55;;;;;;;13.88;12.10;;;;;;;24.42;59.51;101529.94;5049226;28;20483;-73
2023/06/22 08:25:23;;;;;;;17.83;12.00;;;;;;;24.38;59.26;101525.75;5047965;28;20045;-73
2023/06/22 08:27:50;;;;;;;13.27;11.88;;;;;;;24.38;58.59;101525.75;5049412;28;20050;-74
2023/06/22 08:30:18;;;;;;;13.30;11.57;;;;;;;24.38;59.37;101523.06;5048413;28;20153;-74
2023/06/22 08:32:45;;;;;;;12.90;11.50;;;;;;;24.46;59.96;101517.91;5048482;28;20042;-73
2023/06/22 08:35:13;;;;;;;15.00;11.88;;;;;;;24.55;59.17;101503.69;5048390;28;20049;-73
2023/06/22 08:37:40;;;;;;;16.60;11.65;;;;;;;24.55;58.75;101509.09;5049508;28;20052;-74
2023/06/22 08:40:09;;;;;;;14.95;11.10;;;;;;;24.66;58.83;101501.00;5049171;28;20587;-73
2023/06/22 08:42:40;;;;;;;14.93;12.10;;;;;;;24.72;57.95;101515.88;5048828;28;20052;-73
2023/06/22 08:45:08;;;;;;;14.05;11.20;;;;;;;24.81;57.79;101504.34;5047783;28;20053;-73
2023/06/22 08:47:35;;;;;;;13.50;10.80;;;;;;;24.88;57.86;101502.00;5048375;28;20053;-74
2023/06/22 08:50:03;;;;;;;12.75;10.88;;;;;;;25.06;56.46;101496.97;5049019;28;20064;-74
2023/06/22 08:52:31;;;;;;;14.45;11.77;;;;;;;25.02;56.42;101487.41;5047133;28;20583;-73
2023/06/22 08:54:58;;;;;;;14.45;11.50;;;;;;;25.05;56.98;101489.84;5047219;28;20617;-73
2023/06/22 08:57:27;;;;;;;13.52;12.10;;;;;;;25.12;56.44;101492.91;5047904;28;20161;-74
2023/06/22 08:59:58;;;;;;;14.38;11.57;;;;;;;25.12;56.09;101491.06;5048534;28;20049;-74
2023/06/22 09:02:30;;;;;;;13.27;11.48;;;;;;;25.10;56.04;101487.63;5047357;28;20052;-72
2023/06/22 09:04:58;;;;;;;13.90;11.27;;;;;;;25.07;55.17;101489.72;5048691;28;20632;-72
2023/06/22 09:07:26;;;;;;;13.30;11.90;;;;;;;24.87;56.07;101485.97;5048019;28;20108;-73
2023/06/22 09:09:53;;;;;;;14.13;11.88;;;;;;;24.71;57.05;101491.75;5048481;28;20461;-72
2023/06/22 09:12:24;;;;;;;12.00;10.63;;;;;;;24.67;56.29;101483.03;5048151;28;20038;-72
2023/06/22 09:14:51;;;;;;;13.27;10.75;;;;;;;24.69;56.17;101485.63;5047729;28;20462;-74
2023/06/22 09:17:19;;;;;;;13.75;11.45;;;;;;;24.65;56.13;101482.28;5046743;28;20493;-73
2023/06/22 09:19:47;;;;;;;15.52;10.80;;;;;;;24.64;56.42;101481.41;5047662;28;20057;-73
2023/06/22 09:22:14;;;;;;;14.43;10.65;;;;;;;24.69;56.11;101477.53;5047425;28;20140;-74
2023/06/22 09:24:42;;;;;;;15.30;10.30;;;;;;;24.74;55.21;101481.56;5047688;28;20050;-74
2023/06/22 09:27:09;;;;;;;12.43;11.13;;;;;;;24.66;55.64;101470.53;5047676;28;20050;-74
2023/06/22 09:29:36;;;;;;;12.38;10.50;;;;;;;24.56;56.25;101470.38;5046547;28;20053;-72
2023/06/22 09:32:03;;;;;;;12.00;10.70;;;;;;;24.53;56.23;101467.94;5046624;28;20033;-74
2023/06/22 09:34:31;;;;;;;14.70;11.43;;;;;;;24.48;56.02;101467.47;5048058;28;20565;-74
2023/06/22 09:37:00;;;;;;;22.50;12.07;;;;;;;24.38;56.90;101461.94;5046853;28;20037;-73
2023/06/22 09:39:27;;;;;;;13.57;10.68;;;;;;;24.35;57.38;101468.41;5047490;28;20328;-73
2023/06/22 09:41:54;;;;;;;11.57;10.38;;;;;;;24.29;57.61;101468.91;5047802;28;20319;-73
2023/06/22 09:44:22;;;;;;;15.18;10.80;;;;;;;24.32;57.03;101465.97;5047317;28;20049;-73
2023/06/22 09:46:49;;;;;;;13.90;11.10;;;;;;;24.26;57.39;101471.00;5045876;28;20041;-73
2023/06/22 09:49:16;;;;;;;15.15;11.07;;;;;;;24.23;57.20;101474.78;5048146;28;20119;-73
2023/06/22 09:51:43;;;;;;;13.95;11.10;;;;;;;24.18;57.28;101474.28;5046185;28;20476;-73
2023/06/22 09:54:10;;;;;;;12.75;10.20;;;;;;;24.14;57.24;101476.38;5047952;28;20125;-74
2023/06/22 09:56:37;;;;;;;11.38;10.10;;;;;;;24.09;56.85;101481.25;5047211;28;20505;-74
2023/06/22 09:59:04;;;;;;;11.43;9.68;;;;;;;23.99;57.28;101464.09;5047519;28;20306;-73
2023/06/22 10:01:45;;;;;;;11.95;10.02;;;;;;;23.92;57.91;101476.28;5027318;28;20502;-72
2023/06/22 10:04:12;;;;;;;11.45;9.85;;;;;;;23.91;59.19;101477.25;5026808;28;20061;-73
2023/06/22 10:06:40;;;;;;;11.13;9.18;;;;;;;23.94;59.20;101467.09;5038006;28;20167;-73
2023/06/22 10:09:08;;;;;;;11.15;9.88;;;;;;;23.88;58.99;101468.44;5047268;28;20048;-73
2023/06/22 10:11:36;;;;;;;12.27;9.35;;;;;;;23.85;59.02;101466.00;5046118;28;20548;-74
2023/06/22 10:14:04;;;;;;;11.60;8.60;;;;;;;23.86;59.09;101472.22;5046657;28;20045;-73
2023/06/22 10:16:33;;;;;;;12.95;8.60;;;;;;;23.92;58.40;101477.13;5046882;28;20587;-73
2023/06/22 10:19:00;;;;;;;11.48;9.70;;;;;;;23.91;58.88;101471.88;5045798;28;20038;-74
2023/06/22 10:21:28;;;;;;;10.75;9.32;;;;;;;23.88;59.36;101463.06;5039528;28;20052;-75
2023/06/22 10:23:55;;;;;;;11.30;9.32;;;;;;;23.87;59.22;101466.72;5034135;28;20534;-73
2023/06/22 10:26:23;;;;;;;11.38;9.60;;;;;;;23.88;58.82;101465.75;5046784;28;20619;-74
2023/06/22 10:28:50;;;;;;;12.20;9.18;;;;;;;23.84;59.19;101464.28;5047040;28;20045;-74
2023/06/22 10:31:27;;;;;;;11.35;9.02;;;;;;;23.76;59.63;101466.69;5046812;28;20089;-74
2023/06/22 10:33:55;;;;;;;10.65;9.05;;;;;;;23.80;58.95;101457.41;5045368;28;20041;-74
2023/06/22 10:36:23;;;;;;;12.75;9.05;;;;;;;23.77;58.58;101451.41;5040113;28;20058;-74
2023/06/22 10:38:50;;;;;;;11.50;9.60;;;;;;;23.72;58.92;101449.91;5044593;28;20061;-74
2023/06/22 10:41:17;;;;;;;11.07;8.90;;;;;;;23.66;59.03;101441.44;5044728;28;20069;-73
2023/06/22 10:43:44;;;;;;;12.27;9.40;;;;;;;23.63;58.84;101449.78;5042123;28;20045;-72
2023/06/22 10:46:12;;;;;;;11.68;8.32;;;;;;;23.55;59.57;101453.03;5046644;28;20547;-74
2023/06/22 10:48:39;;;;;;;10.05;8.32;;;;;;;23.55;59.30;101448.50;5046185;28;20049;-74
2023/06/22 10:51:06;;;;;;;10.88;8.77;;;;;;;23.53;59.87;101452.28;5044426;28;20598;-73
2023/06/22 10:53:33;;;;;;;11.32;9.15;;;;;;;23.56;59.32;101452.91;5046083;28;20041;-72
2023/06/22 10:56:00;;;;;;;11.07;8.38;;;;;;;23.54;59.19;101449.50;5046474;28;20564;-72
2023/06/22 10:58:28;;;;;;;11.05;8.95;;;;;;;23.56;59.36;101457.44;5044407;28;20145;-72
2023/06/22 11:00:55;;;;;;;12.00;9.00;;;;;;;23.55;59.55;101455.72;5038194;28;20523;-73
2023/06/22 11:03:22;;;;;;;10.60;8.85;;;;;;;23.45;60.08;101474.41;5044852;28;20052;-73
2023/06/22 11:05:50;;;;;;;12.73;9.27;;;;;;;23.09;61.54;101484.19;5046989;28;20076;-72
2023/06/22 11:08:17;;;;;;;13.05;8.82;;;;;;;22.49;65.08;101495.59;5046934;28;20041;-72
2023/06/22 11:10:44;;;;;;;16.15;9.95;;;;;;;22.05;67.99;101499.53;5044351;28;20053;-71
2023/06/22 11:13:11;;;;;;;14.98;10.40;;;;;;;21.75;69.87;101506.03;5045690;28;20161;-72
2023/06/22 11:15:39;;;;;;;15.32;11.50;;;;;;;21.48;72.25;101512.22;5046360;28;20041;-72
2023/06/22 11:18:07;;;;;;;19.70;12.50;;;;;;;21.30;75.26;101513.44;5046411;28;20529;-72
2023/06/22 11:20:38;;;;;;;18.85;13.18;;;;;;;21.08;77.83;101496.94;5046116;28;20057;-72
2023/06/22 11:23:09;;;;;;;17.13;13.30;;;;;;;20.84;79.16;101502.06;5046805;28;20123;-72